createdAt,value
2019-03-17T00:04:54.340Z,1.20
2019-03-17T00:09:54.271Z,0.78
2019-03-17T00:15:04.713Z,0.80
2019-03-17T00:19:54.332Z,0.87
2019-03-17T00:24:54.317Z,1.07
2019-03-17T00:29:54.321Z,1.15
2019-03-17T00:34:54.356Z,0.90
2019-03-17T00:39:54.273Z,1.65
2019-03-17T00:44:54.374Z,1.83
2019-03-17T00:49:54.324Z,1.13
2019-03-17T00:54:54.289Z,0.96
2019-03-17T00:59:54.283Z,0.78
2019-03-17T01:04:56.519Z,0.98
2019-03-17T01:09:54.305Z,0.84
2019-03-17T01:14:54.288Z,0.92
2019-03-17T01:19:54.332Z,0.91
2019-03-17T01:24:54.263Z,1.23
2019-03-17T01:29:54.333Z,1.08
2019-03-17T01:34:54.325Z,1.22
2019-03-17T01:39:54.291Z,1.34
2019-03-17T01:44:54.302Z,0.40
2019-03-17T01:49:54.288Z,0.29
2019-03-17T01:54:54.281Z,0.10
2019-03-17T01:59:54.295Z,0.42
2019-03-17T02:04:54.336Z,0.46
2019-03-17T02:09:54.280Z,0.05
2019-03-17T02:14:54.310Z,0.42
2019-03-17T02:19:54.318Z,0.65
2019-03-17T02:24:54.299Z,0.57
2019-03-17T02:29:54.317Z,0.81
2019-03-17T02:34:54.358Z,1.12
2019-03-17T02:39:54.294Z,0.67
2019-03-17T02:44:54.365Z,0.74
2019-03-17T02:49:54.331Z,0.92
2019-03-17T02:54:54.274Z,0.80
2019-03-17T02:59:54.275Z,0.75
2019-03-17T03:04:54.334Z,0.80
2019-03-17T03:09:54.295Z,0.33
2019-03-17T03:14:54.323Z,0.50
2019-03-17T03:19:54.316Z,0.00
2019-03-17T03:24:54.272Z,0.29
2019-03-17T03:29:54.299Z,0.75
2019-03-17T03:34:54.324Z,0.26
2019-03-17T03:39:54.396Z,0.03
2019-03-17T03:44:54.328Z,0.13
2019-03-17T03:49:57.169Z,0.15
2019-03-17T03:54:54.301Z,0.05
2019-03-17T03:59:54.293Z,0.00
2019-03-17T04:04:54.312Z,0.06
2019-03-17T04:09:54.278Z,0.04
2019-03-17T04:14:54.306Z,0.18
2019-03-17T04:19:54.298Z,0.01
2019-03-17T04:24:54.266Z,0.00
2019-03-17T04:29:54.273Z,0.00
2019-03-17T04:34:54.313Z,0.08
2019-03-17T04:39:54.269Z,0.07
2019-03-17T04:44:54.276Z,0.00
2019-03-17T04:49:54.309Z,0.09
2019-03-17T04:54:54.237Z,0.04
2019-03-17T04:59:54.292Z,0.04
2019-03-17T05:04:54.297Z,0.01
2019-03-17T05:09:54.247Z,0.21
2019-03-17T05:14:54.270Z,0.17
2019-03-17T05:19:54.304Z,0.52
2019-03-17T05:24:54.235Z,0.04
2019-03-17T05:29:54.279Z,0.00
2019-03-17T05:34:54.284Z,0.32
2019-03-17T05:39:54.231Z,0.11
2019-03-17T05:44:54.254Z,0.00
2019-03-17T05:49:54.337Z,0.11
2019-03-17T05:54:54.229Z,0.24
2019-03-17T05:59:54.248Z,0.00
2019-03-17T06:04:54.289Z,0.03
2019-03-17T06:09:54.242Z,0.00
2019-03-17T06:14:54.240Z,0.00
2019-03-17T06:19:54.319Z,0.00
2019-03-17T06:24:54.235Z,0.00
2019-03-17T06:29:54.239Z,0.00
2019-03-17T06:34:54.407Z,0.00
2019-03-17T06:39:54.219Z,0.00
2019-03-17T06:44:54.242Z,0.00
2019-03-17T06:49:54.281Z,0.66
2019-03-17T06:54:54.223Z,0.67
2019-03-17T06:59:54.248Z,0.33
2019-03-17T07:04:54.320Z,0.74
2019-03-17T07:09:54.235Z,0.73
2019-03-17T07:14:54.241Z,0.56
2019-03-17T07:19:54.256Z,0.53
2019-03-17T07:24:54.237Z,0.81
2019-03-17T07:29:54.256Z,0.63
2019-03-17T07:34:54.263Z,2.44
2019-03-17T07:39:54.238Z,3.00
2019-03-17T07:44:54.266Z,2.29
2019-03-17T07:49:54.309Z,2.33
2019-03-17T07:54:54.238Z,3.45
2019-03-17T07:59:54.225Z,3.48
2019-03-17T08:04:54.255Z,2.83
2019-03-17T08:09:54.234Z,2.45
2019-03-17T08:14:54.265Z,2.92
2019-03-17T08:19:54.261Z,2.69
2019-03-17T08:24:54.226Z,3.91
2019-03-17T08:29:54.235Z,3.52
2019-03-17T08:34:54.265Z,3.28
2019-03-17T08:39:54.221Z,3.08
2019-03-17T08:44:54.244Z,2.73
2019-03-17T08:49:54.311Z,2.51
2019-03-17T08:54:54.217Z,2.48
2019-03-17T08:59:54.256Z,1.46
2019-03-17T09:04:54.317Z,2.24
2019-03-17T09:09:54.220Z,2.09
2019-03-17T09:14:54.242Z,1.93
2019-03-17T09:19:54.263Z,2.98
2019-03-17T09:24:54.205Z,3.22
2019-03-17T09:29:54.238Z,2.57
2019-03-17T09:34:54.273Z,2.47
2019-03-17T09:39:54.228Z,2.61
2019-03-17T09:44:54.256Z,2.49
2019-03-17T09:49:54.283Z,2.68
2019-03-17T09:54:54.246Z,2.82
2019-03-17T09:59:54.262Z,3.17
2019-03-17T10:04:54.239Z,3.27
2019-03-17T10:09:54.227Z,2.81
2019-03-17T10:14:54.225Z,2.58
2019-03-17T10:19:54.319Z,3.09
2019-03-17T10:24:54.229Z,2.52
2019-03-17T10:29:54.241Z,2.67
2019-03-17T10:34:54.269Z,2.14
2019-03-17T10:39:54.247Z,2.41
2019-03-17T10:44:54.231Z,1.60
2019-03-17T10:49:54.273Z,1.87
2019-03-17T10:54:54.250Z,1.71
2019-03-17T10:59:54.267Z,1.84
2019-03-17T11:04:54.301Z,2.45
2019-03-17T11:09:54.255Z,2.86
2019-03-17T11:14:54.242Z,2.89
2019-03-17T11:19:54.274Z,3.69
2019-03-17T11:24:54.248Z,3.67
2019-03-17T11:29:54.266Z,1.74
2019-03-17T11:34:54.286Z,2.67
2019-03-17T11:39:54.270Z,2.67
2019-03-17T11:44:54.266Z,3.21
2019-03-17T11:49:54.345Z,2.48
2019-03-17T11:54:54.270Z,2.05
2019-03-17T11:59:54.297Z,3.37
2019-03-17T12:04:54.323Z,1.72
2019-03-17T12:09:54.284Z,2.11
2019-03-17T12:14:54.283Z,1.30
2019-03-17T12:19:54.374Z,1.25
2019-03-17T12:24:54.271Z,2.81
2019-03-17T12:29:54.308Z,3.26
2019-03-17T12:34:54.300Z,2.14
2019-03-17T12:40:02.499Z,1.94
2019-03-17T12:44:54.318Z,2.84
2019-03-17T12:49:54.325Z,3.63
2019-03-17T12:54:54.303Z,2.52
2019-03-17T12:59:54.319Z,3.22
2019-03-17T13:04:54.335Z,2.17
2019-03-17T13:09:54.299Z,2.90
2019-03-17T13:14:54.302Z,3.32
2019-03-17T13:19:54.335Z,2.69
2019-03-17T13:24:54.310Z,3.38
2019-03-17T13:29:54.296Z,1.73
2019-03-17T13:34:54.398Z,2.67
2019-03-17T13:39:54.300Z,1.88
2019-03-17T13:44:54.321Z,2.28
2019-03-17T13:49:54.413Z,2.36
2019-03-17T13:54:54.314Z,1.71
2019-03-17T13:59:54.308Z,2.05
2019-03-17T14:04:54.362Z,2.81
2019-03-17T14:09:54.335Z,1.70
2019-03-17T14:14:54.336Z,2.96
2019-03-17T14:19:54.365Z,2.92
2019-03-17T14:24:54.308Z,2.05
2019-03-17T14:29:54.327Z,1.33
2019-03-17T14:34:54.373Z,1.33
2019-03-17T14:39:54.333Z,2.67
2019-03-17T14:44:54.343Z,4.32
2019-03-17T14:49:54.447Z,4.63
2019-03-17T14:54:54.347Z,2.92
2019-03-17T14:59:54.326Z,4.73
2019-03-17T15:04:54.379Z,3.55
2019-03-17T15:09:54.371Z,2.04
2019-03-17T15:14:54.360Z,3.64
2019-03-17T15:19:54.387Z,3.17
2019-03-17T15:24:54.342Z,1.79
2019-03-17T15:29:54.341Z,2.25
2019-03-17T15:34:54.387Z,2.02
2019-03-17T15:39:54.359Z,2.06
2019-03-17T15:44:54.360Z,3.35
2019-03-17T15:49:54.395Z,2.23
2019-03-17T15:54:54.379Z,1.85
2019-03-17T15:59:54.365Z,2.55
2019-03-17T16:04:54.383Z,1.87
2019-03-17T16:09:54.362Z,1.09
2019-03-17T16:14:54.370Z,2.76
2019-03-17T16:19:54.399Z,4.13
2019-03-17T16:24:54.362Z,3.38
2019-03-17T16:29:54.372Z,3.07
2019-03-17T16:34:54.399Z,3.01
2019-03-17T16:39:54.369Z,0.94
2019-03-17T16:44:54.384Z,1.16
2019-03-17T16:49:54.401Z,1.43
2019-03-17T16:54:54.374Z,3.16
2019-03-17T16:59:54.372Z,2.15
2019-03-17T17:04:54.463Z,1.99
2019-03-17T17:09:54.368Z,2.86
2019-03-17T17:14:54.409Z,2.19
2019-03-17T17:19:54.465Z,2.41
2019-03-17T17:24:54.386Z,1.43
2019-03-17T17:29:54.389Z,2.35
2019-03-17T17:34:54.404Z,2.07
2019-03-17T17:39:54.376Z,1.73
2019-03-17T17:44:54.387Z,2.24
2019-03-17T17:49:54.472Z,2.34
2019-03-17T17:54:54.367Z,2.38
2019-03-17T17:59:54.363Z,2.29
2019-03-17T18:04:54.453Z,3.35
2019-03-17T18:09:54.396Z,1.94
2019-03-17T18:14:54.401Z,2.04
2019-03-17T18:19:54.441Z,1.62
2019-03-17T18:24:55.698Z,1.10
2019-03-17T18:29:54.381Z,1.70
2019-03-17T18:34:54.474Z,3.21
2019-03-17T18:39:54.380Z,2.96
2019-03-17T18:44:54.383Z,3.68
2019-03-17T18:49:54.419Z,2.42
2019-03-17T18:54:54.391Z,2.63
2019-03-17T18:59:54.404Z,1.28
2019-03-17T19:04:54.426Z,0.72
2019-03-17T19:09:54.384Z,1.01
2019-03-17T19:14:54.366Z,1.91
2019-03-17T19:19:54.409Z,2.20
2019-03-17T19:24:54.390Z,0.58
2019-03-17T19:29:54.399Z,1.88
2019-03-17T19:34:54.479Z,1.66
2019-03-17T19:39:54.394Z,2.25
2019-03-17T19:44:54.400Z,3.36
2019-03-17T19:49:54.411Z,2.67
2019-03-17T19:54:54.383Z,2.19
2019-03-17T19:59:54.401Z,3.38
2019-03-17T20:04:54.433Z,3.51
2019-03-17T20:09:54.389Z,3.18
2019-03-17T20:14:54.393Z,3.13
2019-03-17T20:19:54.427Z,2.85
2019-03-17T20:24:54.366Z,2.63
2019-03-17T20:29:54.389Z,2.96
2019-03-17T20:34:54.442Z,3.54
2019-03-17T20:39:54.383Z,2.42
2019-03-17T20:44:54.380Z,2.14
2019-03-17T20:49:54.408Z,3.81
2019-03-17T20:54:54.391Z,3.36
2019-03-17T20:59:54.404Z,2.45
2019-03-17T21:04:54.485Z,2.97
2019-03-17T21:09:54.360Z,2.93
2019-03-17T21:14:54.370Z,2.75
2019-03-17T21:19:54.437Z,2.63
2019-03-17T21:24:54.370Z,2.19
2019-03-17T21:29:54.385Z,2.47
2019-03-17T21:34:54.431Z,3.06
2019-03-17T21:39:54.356Z,3.41
2019-03-17T21:44:54.417Z,3.37
2019-03-17T21:49:54.405Z,3.18
2019-03-17T21:54:54.450Z,3.48
2019-03-17T21:59:54.388Z,2.91
2019-03-17T22:04:54.411Z,3.23
2019-03-17T22:09:54.364Z,3.67
2019-03-17T22:14:54.372Z,3.52
2019-03-17T22:19:54.402Z,3.40
2019-03-17T22:24:54.368Z,2.59
2019-03-17T22:29:54.389Z,1.95
2019-03-17T22:34:54.455Z,1.94
2019-03-17T22:39:54.370Z,2.16
2019-03-17T22:44:54.396Z,1.94
2019-03-17T22:49:54.414Z,1.91
2019-03-17T22:54:54.370Z,1.18
2019-03-17T22:59:54.486Z,0.58
2019-03-17T23:04:54.423Z,0.41
2019-03-17T23:09:54.360Z,0.46
2019-03-17T23:14:54.390Z,1.14
2019-03-17T23:19:54.487Z,0.56
2019-03-17T23:24:54.372Z,0.28
2019-03-17T23:29:54.411Z,0.41
2019-03-17T23:34:54.397Z,1.01
2019-03-17T23:39:54.358Z,0.77
2019-03-17T23:44:54.377Z,0.69
2019-03-17T23:49:54.423Z,0.72
2019-03-17T23:54:54.363Z,0.50
2019-03-17T23:59:54.397Z,1.13
